sensor_id;sensor_type;location;lat;lon;timestamp;P1;durP1;ratioP1;P2;durP2;ratioP2
41275;SDS011;27010;47.718;12.912;2022-07-21T00:02:59;7.72;;;5.75;;
41275;SDS011;27010;47.718;12.912;2022-07-21T00:06:03;8.98;;;5.63;;
41275;SDS011;27010;47.718;12.912;2022-07-21T00:09:06;9.73;;;5.25;;
41275;SDS011;27010;47.718;12.912;2022-07-21T00:12:07;10.13;;;5.35;;
41275;SDS011;27010;47.718;12.912;2022-07-21T00:15:10;6.18;;;5.45;;
41275;SDS011;27010;47.718;12.912;2022-07-21T00:18:16;7.53;;;5.07;;
41275;SDS011;27010;47.718;12.912;2022-07-21T00:21:18;6.75;;;5.15;;
41275;SDS011;27010;47.718;12.912;2022-07-21T00:24:20;7.93;;;5.43;;
41275;SDS011;27010;47.718;12.912;2022-07-21T00:27:22;6.75;;;5.15;;
41275;SDS011;27010;47.718;12.912;2022-07-21T00:30:29;12.40;;;5.90;;
41275;SDS011;27010;47.718;12.912;2022-07-21T00:33:31;8.02;;;5.18;;
41275;SDS011;27010;47.718;12.912;2022-07-21T00:36:33;15.00;;;7.63;;
41275;SDS011;27010;47.718;12.912;2022-07-21T00:39:36;9.63;;;5.75;;
41275;SDS011;27010;47.718;12.912;2022-07-21T00:42:38;10.25;;;6.22;;
41275;SDS011;27010;47.718;12.912;2022-07-21T00:45:40;9.68;;;5.88;;
41275;SDS011;27010;47.718;12.912;2022-07-21T00:48:42;10.70;;;6.63;;
41275;SDS011;27010;47.718;12.912;2022-07-21T00:51:45;11.50;;;6.40;;
41275;SDS011;27010;47.718;12.912;2022-07-21T00:54:47;10.57;;;5.93;;
41275;SDS011;27010;47.718;12.912;2022-07-21T00:57:51;8.98;;;6.45;;
41275;SDS011;27010;47.718;12.912;2022-07-21T01:00:54;11.10;;;6.47;;
41275;SDS011;27010;47.718;12.912;2022-07-21T01:03:56;9.20;;;5.95;;
41275;SDS011;27010;47.718;12.912;2022-07-21T01:07:00;11.65;;;6.20;;
41275;SDS011;27010;47.718;12.912;2022-07-21T01:10:03;8.98;;;5.70;;
41275;SDS011;27010;47.718;12.912;2022-07-21T01:13:05;9.82;;;6.55;;
41275;SDS011;27010;47.718;12.912;2022-07-21T01:16:08;12.75;;;6.03;;
41275;SDS011;27010;47.718;12.912;2022-07-21T01:19:10;10.52;;;6.65;;
41275;SDS011;27010;47.718;12.912;2022-07-21T01:22:13;6.93;;;6.22;;
41275;SDS011;27010;47.718;12.912;2022-07-21T01:25:15;13.88;;;6.13;;
41275;SDS011;27010;47.718;12.912;2022-07-21T01:28:18;8.95;;;5.57;;
41275;SDS011;27010;47.718;12.912;2022-07-21T01:31:21;7.03;;;5.80;;
41275;SDS011;27010;47.718;12.912;2022-07-21T01:34:23;8.95;;;6.15;;
41275;SDS011;27010;47.718;12.912;2022-07-21T01:37:27;8.88;;;5.90;;
41275;SDS011;27010;47.718;12.912;2022-07-21T01:40:30;7.25;;;5.80;;
41275;SDS011;27010;47.718;12.912;2022-07-21T01:43:51;8.40;;;5.63;;
41275;SDS011;27010;47.718;12.912;2022-07-21T01:46:53;10.57;;;6.00;;
41275;SDS011;27010;47.718;12.912;2022-07-21T01:49:55;9.75;;;5.95;;
41275;SDS011;27010;47.718;12.912;2022-07-21T01:52:57;8.82;;;6.00;;
41275;SDS011;27010;47.718;12.912;2022-07-21T01:56:00;8.13;;;4.90;;
41275;SDS011;27010;47.718;12.912;2022-07-21T01:59:03;6.60;;;5.00;;
41275;SDS011;27010;47.718;12.912;2022-07-21T02:02:06;9.68;;;5.10;;
41275;SDS011;27010;47.718;12.912;2022-07-21T02:05:08;5.53;;;4.38;;
41275;SDS011;27010;47.718;12.912;2022-07-21T02:08:11;5.05;;;4.60;;
41275;SDS011;27010;47.718;12.912;2022-07-21T02:11:13;5.68;;;4.97;;
41275;SDS011;27010;47.718;12.912;2022-07-21T02:14:15;5.85;;;4.75;;
41275;SDS011;27010;47.718;12.912;2022-07-21T02:17:17;6.00;;;5.07;;
41275;SDS011;27010;47.718;12.912;2022-07-21T02:20:19;7.10;;;4.57;;
41275;SDS011;27010;47.718;12.912;2022-07-21T02:23:23;9.25;;;5.18;;
41275;SDS011;27010;47.718;12.912;2022-07-21T02:26:25;5.40;;;4.88;;
41275;SDS011;27010;47.718;12.912;2022-07-21T02:29:27;7.75;;;4.40;;
41275;SDS011;27010;47.718;12.912;2022-07-21T02:32:29;7.47;;;4.88;;
41275;SDS011;27010;47.718;12.912;2022-07-21T02:35:32;7.32;;;4.30;;
41275;SDS011;27010;47.718;12.912;2022-07-21T02:38:34;5.70;;;4.38;;
41275;SDS011;27010;47.718;12.912;2022-07-21T02:41:36;4.68;;;4.28;;
41275;SDS011;27010;47.718;12.912;2022-07-21T02:44:38;5.70;;;4.90;;
41275;SDS011;27010;47.718;12.912;2022-07-21T02:51:02;5.68;;;4.80;;
41275;SDS011;27010;47.718;12.912;2022-07-21T02:54:08;6.82;;;5.25;;
41275;SDS011;27010;47.718;12.912;2022-07-21T02:57:10;5.32;;;4.57;;
41275;SDS011;27010;47.718;12.912;2022-07-21T03:00:15;11.70;;;5.20;;
41275;SDS011;27010;47.718;12.912;2022-07-21T03:03:17;7.00;;;4.80;;
41275;SDS011;27010;47.718;12.912;2022-07-21T03:06:20;5.60;;;4.88;;
41275;SDS011;27010;47.718;12.912;2022-07-21T03:09:22;7.22;;;5.10;;
41275;SDS011;27010;47.718;12.912;2022-07-21T03:12:30;8.85;;;5.05;;
41275;SDS011;27010;47.718;12.912;2022-07-21T03:15:32;10.23;;;5.90;;
41275;SDS011;27010;47.718;12.912;2022-07-21T03:18:34;8.52;;;5.20;;
41275;SDS011;27010;47.718;12.912;2022-07-21T03:21:36;5.10;;;4.57;;
41275;SDS011;27010;47.718;12.912;2022-07-21T03:24:39;8.30;;;4.93;;
41275;SDS011;27010;47.718;12.912;2022-07-21T03:27:41;5.90;;;4.95;;
41275;SDS011;27010;47.718;12.912;2022-07-21T03:30:43;5.63;;;4.43;;
41275;SDS011;27010;47.718;12.912;2022-07-21T03:33:45;5.07;;;4.60;;
41275;SDS011;27010;47.718;12.912;2022-07-21T03:36:48;8.10;;;5.70;;
41275;SDS011;27010;47.718;12.912;2022-07-21T03:39:50;5.18;;;4.57;;
41275;SDS011;27010;47.718;12.912;2022-07-21T03:42:53;6.03;;;4.47;;
41275;SDS011;27010;47.718;12.912;2022-07-21T03:45:57;5.07;;;4.57;;
41275;SDS011;27010;47.718;12.912;2022-07-21T03:48:59;6.00;;;4.80;;
41275;SDS011;27010;47.718;12.912;2022-07-21T03:52:02;7.40;;;5.22;;
41275;SDS011;27010;47.718;12.912;2022-07-21T03:55:07;6.35;;;5.05;;
41275;SDS011;27010;47.718;12.912;2022-07-21T03:58:15;8.05;;;5.28;;
41275;SDS011;27010;47.718;12.912;2022-07-21T04:01:17;6.07;;;4.97;;
41275;SDS011;27010;47.718;12.912;2022-07-21T04:04:20;5.00;;;4.47;;
41275;SDS011;27010;47.718;12.912;2022-07-21T04:07:22;5.35;;;4.85;;
41275;SDS011;27010;47.718;12.912;2022-07-21T04:10:25;6.72;;;5.40;;
41275;SDS011;27010;47.718;12.912;2022-07-21T04:13:28;6.45;;;5.30;;
41275;SDS011;27010;47.718;12.912;2022-07-21T04:16:30;6.25;;;5.30;;
41275;SDS011;27010;47.718;12.912;2022-07-21T04:19:33;7.00;;;5.38;;
41275;SDS011;27010;47.718;12.912;2022-07-21T04:22:35;7.32;;;4.53;;
41275;SDS011;27010;47.718;12.912;2022-07-21T04:25:37;5.85;;;5.25;;
41275;SDS011;27010;47.718;12.912;2022-07-21T04:28:40;7.85;;;5.10;;
41275;SDS011;27010;47.718;12.912;2022-07-21T04:31:42;6.30;;;5.60;;
41275;SDS011;27010;47.718;12.912;2022-07-21T04:34:44;7.15;;;5.40;;
41275;SDS011;27010;47.718;12.912;2022-07-21T04:37:47;6.85;;;4.90;;
41275;SDS011;27010;47.718;12.912;2022-07-21T04:40:52;6.60;;;5.55;;
41275;SDS011;27010;47.718;12.912;2022-07-21T04:43:54;5.00;;;4.50;;
41275;SDS011;27010;47.718;12.912;2022-07-21T04:46:56;9.43;;;5.30;;
41275;SDS011;27010;47.718;12.912;2022-07-21T04:49:59;5.15;;;4.70;;
41275;SDS011;27010;47.718;12.912;2022-07-21T04:53:00;5.55;;;5.00;;
41275;SDS011;27010;47.718;12.912;2022-07-21T04:56:03;6.55;;;5.07;;
41275;SDS011;27010;47.718;12.912;2022-07-21T04:59:05;5.65;;;5.10;;
41275;SDS011;27010;47.718;12.912;2022-07-21T05:02:07;6.80;;;5.20;;
41275;SDS011;27010;47.718;12.912;2022-07-21T05:05:09;7.13;;;6.13;;
41275;SDS011;27010;47.718;12.912;2022-07-21T05:08:12;7.10;;;5.20;;
41275;SDS011;27010;47.718;12.912;2022-07-21T05:11:14;6.05;;;4.93;;
41275;SDS011;27010;47.718;12.912;2022-07-21T05:14:16;7.22;;;5.13;;
41275;SDS011;27010;47.718;12.912;2022-07-21T05:17:18;5.18;;;4.70;;
41275;SDS011;27010;47.718;12.912;2022-07-21T05:20:20;6.10;;;5.30;;
41275;SDS011;27010;47.718;12.912;2022-07-21T05:23:21;5.88;;;5.15;;
41275;SDS011;27010;47.718;12.912;2022-07-21T05:26:24;10.55;;;5.95;;
41275;SDS011;27010;47.718;12.912;2022-07-21T05:29:26;6.80;;;6.10;;
41275;SDS011;27010;47.718;12.912;2022-07-21T05:32:28;8.48;;;5.30;;
41275;SDS011;27010;47.718;12.912;2022-07-21T05:35:30;6.70;;;5.50;;
41275;SDS011;27010;47.718;12.912;2022-07-21T05:38:33;8.30;;;5.70;;
41275;SDS011;27010;47.718;12.912;2022-07-21T05:41:35;7.35;;;6.25;;
41275;SDS011;27010;47.718;12.912;2022-07-21T05:44:37;9.10;;;5.60;;
41275;SDS011;27010;47.718;12.912;2022-07-21T05:47:39;6.72;;;5.55;;
41275;SDS011;27010;47.718;12.912;2022-07-21T05:50:42;7.32;;;5.32;;
41275;SDS011;27010;47.718;12.912;2022-07-21T05:53:44;7.68;;;5.78;;
41275;SDS011;27010;47.718;12.912;2022-07-21T05:56:46;8.25;;;5.60;;
41275;SDS011;27010;47.718;12.912;2022-07-21T05:59:48;7.93;;;6.32;;
41275;SDS011;27010;47.718;12.912;2022-07-21T06:02:50;6.88;;;5.30;;
41275;SDS011;27010;47.718;12.912;2022-07-21T06:05:52;5.68;;;5.10;;
41275;SDS011;27010;47.718;12.912;2022-07-21T06:08:54;8.80;;;5.28;;
41275;SDS011;27010;47.718;12.912;2022-07-21T06:11:58;5.88;;;5.28;;
41275;SDS011;27010;47.718;12.912;2022-07-21T06:15:00;4.85;;;4.30;;
41275;SDS011;27010;47.718;12.912;2022-07-21T06:18:02;4.95;;;4.45;;
41275;SDS011;27010;47.718;12.912;2022-07-21T06:21:05;5.10;;;4.60;;
41275;SDS011;27010;47.718;12.912;2022-07-21T06:24:07;7.78;;;5.15;;
41275;SDS011;27010;47.718;12.912;2022-07-21T06:27:34;9.60;;;5.30;;
41275;SDS011;27010;47.718;12.912;2022-07-21T06:30:36;5.15;;;4.65;;
41275;SDS011;27010;47.718;12.912;2022-07-21T06:33:38;5.32;;;4.65;;
41275;SDS011;27010;47.718;12.912;2022-07-21T06:36:40;6.25;;;4.22;;
41275;SDS011;27010;47.718;12.912;2022-07-21T06:39:42;7.70;;;4.90;;
41275;SDS011;27010;47.718;12.912;2022-07-21T06:42:44;5.70;;;3.83;;
41275;SDS011;27010;47.718;12.912;2022-07-21T06:46:06;6.80;;;4.07;;
41275;SDS011;27010;47.718;12.912;2022-07-21T06:49:09;6.18;;;4.22;;
41275;SDS011;27010;47.718;12.912;2022-07-21T06:52:11;3.83;;;3.40;;
41275;SDS011;27010;47.718;12.912;2022-07-21T06:55:13;6.32;;;4.05;;
41275;SDS011;27010;47.718;12.912;2022-07-21T06:58:20;6.10;;;3.47;;
41275;SDS011;27010;47.718;12.912;2022-07-21T07:01:24;4.40;;;2.80;;
41275;SDS011;27010;47.718;12.912;2022-07-21T07:04:26;3.00;;;2.70;;
41275;SDS011;27010;47.718;12.912;2022-07-21T07:07:29;7.13;;;2.67;;
41275;SDS011;27010;47.718;12.912;2022-07-21T07:10:32;3.45;;;2.45;;
41275;SDS011;27010;47.718;12.912;2022-07-21T07:13:34;4.68;;;3.25;;
41275;SDS011;27010;47.718;12.912;2022-07-21T07:16:57;3.83;;;3.13;;
41275;SDS011;27010;47.718;12.912;2022-07-21T07:19:59;4.85;;;3.78;;
41275;SDS011;27010;47.718;12.912;2022-07-21T07:23:02;4.57;;;3.30;;
41275;SDS011;27010;47.718;12.912;2022-07-21T07:26:05;5.57;;;3.55;;
41275;SDS011;27010;47.718;12.912;2022-07-21T07:29:08;7.93;;;3.55;;
41275;SDS011;27010;47.718;12.912;2022-07-21T07:32:11;3.97;;;3.60;;
41275;SDS011;27010;47.718;12.912;2022-07-21T07:35:13;3.88;;;3.40;;
41275;SDS011;27010;47.718;12.912;2022-07-21T07:38:16;8.02;;;3.65;;
41275;SDS011;27010;47.718;12.912;2022-07-21T07:41:18;6.40;;;3.72;;
41275;SDS011;27010;47.718;12.912;2022-07-21T07:44:21;4.18;;;3.30;;
41275;SDS011;27010;47.718;12.912;2022-07-21T07:47:24;5.28;;;3.75;;
41275;SDS011;27010;47.718;12.912;2022-07-21T07:50:26;5.85;;;4.03;;
41275;SDS011;27010;47.718;12.912;2022-07-21T07:53:29;4.53;;;3.83;;
41275;SDS011;27010;47.718;12.912;2022-07-21T07:56:31;5.82;;;3.60;;
41275;SDS011;27010;47.718;12.912;2022-07-21T07:59:33;4.75;;;3.63;;
41275;SDS011;27010;47.718;12.912;2022-07-21T08:02:35;6.15;;;3.42;;
41275;SDS011;27010;47.718;12.912;2022-07-21T08:05:37;5.57;;;3.90;;
41275;SDS011;27010;47.718;12.912;2022-07-21T08:08:39;3.45;;;3.15;;
41275;SDS011;27010;47.718;12.912;2022-07-21T08:11:41;4.47;;;3.78;;
41275;SDS011;27010;47.718;12.912;2022-07-21T08:14:45;4.18;;;3.17;;
41275;SDS011;27010;47.718;12.912;2022-07-21T08:17:47;5.05;;;3.63;;
41275;SDS011;27010;47.718;12.912;2022-07-21T08:20:49;5.03;;;3.97;;
41275;SDS011;27010;47.718;12.912;2022-07-21T08:23:51;5.00;;;4.50;;
41275;SDS011;27010;47.718;12.912;2022-07-21T08:26:55;7.50;;;3.75;;
41275;SDS011;27010;47.718;12.912;2022-07-21T08:29:57;4.53;;;4.13;;
41275;SDS011;27010;47.718;12.912;2022-07-21T08:32:59;4.78;;;4.30;;
41275;SDS011;27010;47.718;12.912;2022-07-21T08:36:02;5.57;;;4.07;;
41275;SDS011;27010;47.718;12.912;2022-07-21T08:39:04;7.15;;;4.45;;
41275;SDS011;27010;47.718;12.912;2022-07-21T08:42:06;6.57;;;4.50;;
41275;SDS011;27010;47.718;12.912;2022-07-21T08:45:09;7.60;;;5.03;;
41275;SDS011;27010;47.718;12.912;2022-07-21T08:48:11;6.78;;;4.80;;
41275;SDS011;27010;47.718;12.912;2022-07-21T08:51:16;8.07;;;5.03;;
41275;SDS011;27010;47.718;12.912;2022-07-21T08:54:22;5.65;;;4.90;;
41275;SDS011;27010;47.718;12.912;2022-07-21T08:57:24;5.53;;;4.90;;
41275;SDS011;27010;47.718;12.912;2022-07-21T09:00:26;6.95;;;5.63;;
41275;SDS011;27010;47.718;12.912;2022-07-21T09:03:29;5.68;;;5.13;;
41275;SDS011;27010;47.718;12.912;2022-07-21T09:06:31;6.40;;;5.05;;
41275;SDS011;27010;47.718;12.912;2022-07-21T09:09:35;6.05;;;5.40;;
41275;SDS011;27010;47.718;12.912;2022-07-21T09:12:47;6.43;;;5.82;;
41275;SDS011;27010;47.718;12.912;2022-07-21T09:15:53;7.32;;;5.85;;
41275;SDS011;27010;47.718;12.912;2022-07-21T09:18:56;6.40;;;5.90;;
41275;SDS011;27010;47.718;12.912;2022-07-21T09:22:00;9.05;;;6.45;;
41275;SDS011;27010;47.718;12.912;2022-07-21T09:25:03;11.30;;;7.35;;
41275;SDS011;27010;47.718;12.912;2022-07-21T09:28:07;6.85;;;6.25;;
41275;SDS011;27010;47.718;12.912;2022-07-21T09:31:10;12.88;;;7.13;;
41275;SDS011;27010;47.718;12.912;2022-07-21T09:34:16;11.85;;;8.65;;
41275;SDS011;27010;47.718;12.912;2022-07-21T09:37:20;9.50;;;8.30;;
41275;SDS011;27010;47.718;12.912;2022-07-21T09:40:24;8.75;;;7.95;;
41275;SDS011;27010;47.718;12.912;2022-07-21T09:46:43;12.75;;;9.05;;
41275;SDS011;27010;47.718;12.912;2022-07-21T09:49:45;10.65;;;9.43;;
41275;SDS011;27010;47.718;12.912;2022-07-21T09:53:07;11.68;;;9.48;;
41275;SDS011;27010;47.718;12.912;2022-07-21T09:56:10;15.13;;;9.40;;
41275;SDS011;27010;47.718;12.912;2022-07-21T09:59:12;10.45;;;9.18;;
41275;SDS011;27010;47.718;12.912;2022-07-21T10:02:18;11.82;;;10.43;;
41275;SDS011;27010;47.718;12.912;2022-07-21T10:05:22;11.55;;;10.35;;
41275;SDS011;27010;47.718;12.912;2022-07-21T10:08:33;13.73;;;9.38;;
41275;SDS011;27010;47.718;12.912;2022-07-21T10:11:35;10.95;;;9.85;;
41275;SDS011;27010;47.718;12.912;2022-07-21T10:14:44;11.52;;;9.52;;
41275;SDS011;27010;47.718;12.912;2022-07-21T10:17:49;14.25;;;9.50;;
41275;SDS011;27010;47.718;12.912;2022-07-21T10:21:40;11.00;;;9.77;;
41275;SDS011;27010;47.718;12.912;2022-07-21T10:24:26;10.82;;;9.70;;
41275;SDS011;27010;47.718;12.912;2022-07-21T10:27:29;11.18;;;9.93;;
41275;SDS011;27010;47.718;12.912;2022-07-21T10:30:55;12.40;;;10.65;;
41275;SDS011;27010;47.718;12.912;2022-07-21T10:33:59;11.13;;;9.93;;
41275;SDS011;27010;47.718;12.912;2022-07-21T10:37:02;14.38;;;9.73;;
41275;SDS011;27010;47.718;12.912;2022-07-21T10:46:37;11.07;;;9.63;;
41275;SDS011;27010;47.718;12.912;2022-07-21T10:55:52;10.60;;;9.55;;
41275;SDS011;27010;47.718;12.912;2022-07-21T10:58:56;12.73;;;9.90;;
41275;SDS011;27010;47.718;12.912;2022-07-21T11:02:24;11.77;;;10.57;;
41275;SDS011;27010;47.718;12.912;2022-07-21T11:05:29;15.63;;;10.93;;
41275;SDS011;27010;47.718;12.912;2022-07-21T11:08:33;13.45;;;11.52;;
41275;SDS011;27010;47.718;12.912;2022-07-21T11:15:05;14.20;;;11.55;;
41275;SDS011;27010;47.718;12.912;2022-07-21T11:18:07;13.57;;;10.68;;
41275;SDS011;27010;47.718;12.912;2022-07-21T11:21:11;12.98;;;11.40;;
41275;SDS011;27010;47.718;12.912;2022-07-21T11:24:17;12.70;;;11.32;;
41275;SDS011;27010;47.718;12.912;2022-07-21T11:27:21;12.13;;;10.10;;
41275;SDS011;27010;47.718;12.912;2022-07-21T11:30:25;11.88;;;10.70;;
41275;SDS011;27010;47.718;12.912;2022-07-21T11:33:27;11.90;;;10.70;;
41275;SDS011;27010;47.718;12.912;2022-07-21T11:36:30;13.00;;;11.57;;
41275;SDS011;27010;47.718;12.912;2022-07-21T11:39:34;13.50;;;11.40;;
41275;SDS011;27010;47.718;12.912;2022-07-21T11:42:36;13.25;;;11.07;;
41275;SDS011;27010;47.718;12.912;2022-07-21T11:45:39;12.10;;;10.90;;
41275;SDS011;27010;47.718;12.912;2022-07-21T11:49:02;12.95;;;11.35;;
41275;SDS011;27010;47.718;12.912;2022-07-21T11:52:07;12.85;;;11.60;;
41275;SDS011;27010;47.718;12.912;2022-07-21T11:55:16;12.13;;;10.40;;
41275;SDS011;27010;47.718;12.912;2022-07-21T11:58:18;12.98;;;11.65;;
41275;SDS011;27010;47.718;12.912;2022-07-21T12:01:20;12.63;;;10.48;;
41275;SDS011;27010;47.718;12.912;2022-07-21T12:08:01;12.38;;;10.65;;
41275;SDS011;27010;47.718;12.912;2022-07-21T12:11:04;15.07;;;12.10;;
41275;SDS011;27010;47.718;12.912;2022-07-21T12:14:08;12.38;;;11.18;;
41275;SDS011;27010;47.718;12.912;2022-07-21T12:17:10;13.90;;;11.63;;
41275;SDS011;27010;47.718;12.912;2022-07-21T12:20:13;14.35;;;11.60;;
41275;SDS011;27010;47.718;12.912;2022-07-21T12:23:27;13.85;;;11.27;;
41275;SDS011;27010;47.718;12.912;2022-07-21T12:26:31;16.27;;;11.25;;
41275;SDS011;27010;47.718;12.912;2022-07-21T12:29:35;12.75;;;11.43;;
41275;SDS011;27010;47.718;12.912;2022-07-21T12:32:41;12.98;;;11.63;;
41275;SDS011;27010;47.718;12.912;2022-07-21T12:35:45;16.23;;;10.80;;
41275;SDS011;27010;47.718;12.912;2022-07-21T12:42:36;13.20;;;11.70;;
41275;SDS011;27010;47.718;12.912;2022-07-21T12:45:43;14.45;;;11.85;;
41275;SDS011;27010;47.718;12.912;2022-07-21T12:48:48;12.63;;;10.68;;
41275;SDS011;27010;47.718;12.912;2022-07-21T12:51:55;13.20;;;11.80;;
41275;SDS011;27010;47.718;12.912;2022-07-21T12:54:58;12.85;;;11.55;;
41275;SDS011;27010;47.718;12.912;2022-07-21T12:58:01;14.15;;;11.98;;
41275;SDS011;27010;47.718;12.912;2022-07-21T13:01:04;14.02;;;11.50;;
41275;SDS011;27010;47.718;12.912;2022-07-21T13:04:06;16.02;;;11.35;;
41275;SDS011;27010;47.718;12.912;2022-07-21T13:07:08;13.95;;;11.48;;
41275;SDS011;27010;47.718;12.912;2022-07-21T13:10:10;11.77;;;10.57;;
41275;SDS011;27010;47.718;12.912;2022-07-21T13:13:12;12.52;;;11.23;;
41275;SDS011;27010;47.718;12.912;2022-07-21T13:16:14;14.63;;;10.88;;
41275;SDS011;27010;47.718;12.912;2022-07-21T13:19:18;12.60;;;11.20;;
41275;SDS011;27010;47.718;12.912;2022-07-21T13:22:20;14.82;;;12.50;;
41275;SDS011;27010;47.718;12.912;2022-07-21T13:25:22;13.20;;;11.63;;
41275;SDS011;27010;47.718;12.912;2022-07-21T13:28:28;14.32;;;12.75;;
41275;SDS011;27010;47.718;12.912;2022-07-21T13:31:30;11.52;;;10.43;;
41275;SDS011;27010;47.718;12.912;2022-07-21T13:34:32;13.02;;;11.32;;
41275;SDS011;27010;47.718;12.912;2022-07-21T13:37:35;12.75;;;11.40;;
41275;SDS011;27010;47.718;12.912;2022-07-21T13:40:37;12.63;;;10.60;;
41275;SDS011;27010;47.718;12.912;2022-07-21T13:43:59;11.90;;;10.75;;
41275;SDS011;27010;47.718;12.912;2022-07-21T13:47:03;12.60;;;10.75;;
41275;SDS011;27010;47.718;12.912;2022-07-21T13:50:05;13.48;;;10.45;;
41275;SDS011;27010;47.718;12.912;2022-07-21T13:53:08;13.80;;;10.30;;
41275;SDS011;27010;47.718;12.912;2022-07-21T13:56:11;13.40;;;10.45;;
41275;SDS011;27010;47.718;12.912;2022-07-21T13:59:13;13.43;;;11.50;;
41275;SDS011;27010;47.718;12.912;2022-07-21T14:02:15;11.07;;;9.90;;
41275;SDS011;27010;47.718;12.912;2022-07-21T14:05:18;13.10;;;10.75;;
41275;SDS011;27010;47.718;12.912;2022-07-21T14:08:20;15.57;;;10.10;;
41275;SDS011;27010;47.718;12.912;2022-07-21T14:11:22;11.77;;;10.57;;
41275;SDS011;27010;47.718;12.912;2022-07-21T14:14:25;11.55;;;10.45;;
41275;SDS011;27010;47.718;12.912;2022-07-21T14:17:28;9.52;;;8.50;;
41275;SDS011;27010;47.718;12.912;2022-07-21T14:20:30;11.77;;;10.15;;
41275;SDS011;27010;47.718;12.912;2022-07-21T14:23:32;10.23;;;9.13;;
41275;SDS011;27010;47.718;12.912;2022-07-21T14:26:35;15.48;;;9.18;;
41275;SDS011;27010;47.718;12.912;2022-07-21T14:29:38;9.93;;;8.90;;
41275;SDS011;27010;47.718;12.912;2022-07-21T14:32:40;11.13;;;9.13;;
41275;SDS011;27010;47.718;12.912;2022-07-21T14:35:43;10.32;;;8.93;;
41275;SDS011;27010;47.718;12.912;2022-07-21T14:38:45;10.27;;;9.15;;
41275;SDS011;27010;47.718;12.912;2022-07-21T14:41:47;9.80;;;8.77;;
41275;SDS011;27010;47.718;12.912;2022-07-21T14:44:49;12.77;;;9.75;;
41275;SDS011;27010;47.718;12.912;2022-07-21T14:47:52;17.95;;;11.23;;
41275;SDS011;27010;47.718;12.912;2022-07-21T14:50:55;16.33;;;10.63;;
41275;SDS011;27010;47.718;12.912;2022-07-21T14:53:58;12.75;;;9.93;;
41275;SDS011;27010;47.718;12.912;2022-07-21T14:57:00;11.15;;;9.18;;
41275;SDS011;27010;47.718;12.912;2022-07-21T15:00:11;18.52;;;10.93;;
41275;SDS011;27010;47.718;12.912;2022-07-21T15:03:14;21.95;;;12.20;;
41275;SDS011;27010;47.718;12.912;2022-07-21T15:06:16;12.93;;;9.82;;
41275;SDS011;27010;47.718;12.912;2022-07-21T15:09:19;10.48;;;8.95;;
41275;SDS011;27010;47.718;12.912;2022-07-21T15:12:21;14.75;;;9.75;;
41275;SDS011;27010;47.718;12.912;2022-07-21T15:15:24;14.45;;;10.13;;
41275;SDS011;27010;47.718;12.912;2022-07-21T15:18:26;12.38;;;9.48;;
41275;SDS011;27010;47.718;12.912;2022-07-21T15:21:28;12.07;;;9.25;;
41275;SDS011;27010;47.718;12.912;2022-07-21T15:24:30;11.65;;;10.30;;
41275;SDS011;27010;47.718;12.912;2022-07-21T15:27:32;12.38;;;9.88;;
41275;SDS011;27010;47.718;12.912;2022-07-21T15:30:34;11.75;;;9.32;;
41275;SDS011;27010;47.718;12.912;2022-07-21T15:33:36;10.57;;;9.48;;
41275;SDS011;27010;47.718;12.912;2022-07-21T15:36:38;10.90;;;9.02;;
41275;SDS011;27010;47.718;12.912;2022-07-21T15:39:42;12.35;;;9.60;;
41275;SDS011;27010;47.718;12.912;2022-07-21T15:42:44;10.38;;;9.27;;
41275;SDS011;27010;47.718;12.912;2022-07-21T15:45:46;11.57;;;9.93;;
41275;SDS011;27010;47.718;12.912;2022-07-21T15:48:48;10.70;;;9.55;;
41275;SDS011;27010;47.718;12.912;2022-07-21T15:51:50;12.90;;;9.32;;
41275;SDS011;27010;47.718;12.912;2022-07-21T15:54:53;11.05;;;9.90;;
41275;SDS011;27010;47.718;12.912;2022-07-21T15:58:02;10.93;;;9.70;;
41275;SDS011;27010;47.718;12.912;2022-07-21T16:01:04;14.23;;;11.02;;
41275;SDS011;27010;47.718;12.912;2022-07-21T16:04:06;12.93;;;9.82;;
41275;SDS011;27010;47.718;12.912;2022-07-21T16:07:09;10.35;;;9.40;;
41275;SDS011;27010;47.718;12.912;2022-07-21T16:10:13;14.00;;;10.30;;
41275;SDS011;27010;47.718;12.912;2022-07-21T16:13:17;13.18;;;10.90;;
41275;SDS011;27010;47.718;12.912;2022-07-21T16:16:19;11.70;;;10.60;;
41275;SDS011;27010;47.718;12.912;2022-07-21T16:19:22;13.30;;;10.57;;
41275;SDS011;27010;47.718;12.912;2022-07-21T16:22:26;12.43;;;10.15;;
41275;SDS011;27010;47.718;12.912;2022-07-21T16:25:28;11.93;;;10.40;;
41275;SDS011;27010;47.718;12.912;2022-07-21T16:28:30;12.98;;;10.10;;
41275;SDS011;27010;47.718;12.912;2022-07-21T16:31:33;12.00;;;10.65;;
41275;SDS011;27010;47.718;12.912;2022-07-21T16:34:35;12.50;;;11.20;;
41275;SDS011;27010;47.718;12.912;2022-07-21T16:37:37;12.90;;;11.57;;
41275;SDS011;27010;47.718;12.912;2022-07-21T16:40:41;12.45;;;11.18;;
41275;SDS011;27010;47.718;12.912;2022-07-21T16:43:43;12.43;;;11.05;;
41275;SDS011;27010;47.718;12.912;2022-07-21T16:46:45;12.82;;;11.63;;
41275;SDS011;27010;47.718;12.912;2022-07-21T16:49:48;17.88;;;10.93;;
41275;SDS011;27010;47.718;12.912;2022-07-21T16:52:50;13.40;;;10.82;;
41275;SDS011;27010;47.718;12.912;2022-07-21T16:55:52;12.45;;;10.80;;
41275;SDS011;27010;47.718;12.912;2022-07-21T16:58:54;13.70;;;10.95;;
41275;SDS011;27010;47.718;12.912;2022-07-21T17:01:56;11.50;;;10.43;;
41275;SDS011;27010;47.718;12.912;2022-07-21T17:04:59;12.15;;;10.27;;
41275;SDS011;27010;47.718;12.912;2022-07-21T17:08:01;11.60;;;10.35;;
41275;SDS011;27010;47.718;12.912;2022-07-21T17:11:03;14.18;;;11.07;;
41275;SDS011;27010;47.718;12.912;2022-07-21T17:14:05;12.38;;;11.02;;
41275;SDS011;27010;47.718;12.912;2022-07-21T17:17:08;11.68;;;10.48;;
41275;SDS011;27010;47.718;12.912;2022-07-21T17:20:10;11.85;;;10.45;;
41275;SDS011;27010;47.718;12.912;2022-07-21T17:23:13;12.35;;;10.75;;
41275;SDS011;27010;47.718;12.912;2022-07-21T17:26:15;11.25;;;10.13;;
41275;SDS011;27010;47.718;12.912;2022-07-21T17:29:17;12.80;;;11.60;;
41275;SDS011;27010;47.718;12.912;2022-07-21T17:32:19;11.70;;;9.45;;
41275;SDS011;27010;47.718;12.912;2022-07-21T17:35:21;10.65;;;9.48;;
41275;SDS011;27010;47.718;12.912;2022-07-21T17:38:23;14.98;;;10.25;;
41275;SDS011;27010;47.718;12.912;2022-07-21T17:41:25;12.77;;;10.73;;
41275;SDS011;27010;47.718;12.912;2022-07-21T17:44:27;11.27;;;9.98;;
41275;SDS011;27010;47.718;12.912;2022-07-21T17:47:29;10.57;;;9.48;;
41275;SDS011;27010;47.718;12.912;2022-07-21T17:50:31;15.98;;;10.85;;
41275;SDS011;27010;47.718;12.912;2022-07-21T17:53:33;12.13;;;10.32;;
41275;SDS011;27010;47.718;12.912;2022-07-21T17:56:44;13.00;;;10.82;;
41275;SDS011;27010;47.718;12.912;2022-07-21T17:59:46;12.43;;;10.07;;
41275;SDS011;27010;47.718;12.912;2022-07-21T18:02:48;11.50;;;10.30;;
41275;SDS011;27010;47.718;12.912;2022-07-21T18:05:51;12.40;;;10.40;;
41275;SDS011;27010;47.718;12.912;2022-07-21T18:08:53;13.27;;;10.18;;
41275;SDS011;27010;47.718;12.912;2022-07-21T18:11:55;12.65;;;10.18;;
41275;SDS011;27010;47.718;12.912;2022-07-21T18:14:57;11.35;;;10.18;;
41275;SDS011;27010;47.718;12.912;2022-07-21T18:18:00;11.43;;;10.25;;
41275;SDS011;27010;47.718;12.912;2022-07-21T18:21:02;11.52;;;9.98;;
41275;SDS011;27010;47.718;12.912;2022-07-21T18:24:07;12.40;;;9.98;;
41275;SDS011;27010;47.718;12.912;2022-07-21T18:27:13;13.25;;;10.48;;